createdAt,value
2023-03-13T00:01:59.316Z,99957.59
2023-03-13T00:04:32.596Z,99962.63
2023-03-13T00:07:06.227Z,99956.98
2023-03-13T00:09:39.692Z,99960.98
2023-03-13T00:12:12.454Z,99956.84
2023-03-13T00:14:45.954Z,99967.12
2023-03-13T00:17:19.175Z,99968.27
2023-03-13T00:19:56.011Z,99971.20
2023-03-13T00:22:30.677Z,99971.70
2023-03-13T00:25:03.361Z,99974.07
2023-03-13T00:27:36.568Z,99977.64
2023-03-13T00:30:11.250Z,99978.32
2023-03-13T00:32:47.550Z,99979.61
2023-03-13T00:35:21.896Z,99983.20
2023-03-13T00:37:54.737Z,99986.03
2023-03-13T00:40:28.161Z,99987.99
2023-03-13T00:43:01.795Z,99998.02
2023-03-13T00:45:35.181Z,99995.45
2023-03-13T00:48:08.496Z,99989.77
2023-03-13T00:50:41.826Z,99985.78
2023-03-13T00:53:14.654Z,99989.49
2023-03-13T00:55:56.999Z,99987.70
2023-03-13T00:58:32.911Z,99984.07
2023-03-13T01:01:24.510Z,99985.46
2023-03-13T01:04:01.016Z,99991.39
2023-03-13T01:06:38.066Z,99992.89
2023-03-13T01:09:15.550Z,99994.56
2023-03-13T01:11:49.031Z,100000.09
2023-03-13T01:14:22.732Z,100002.88
2023-03-13T01:16:56.417Z,100011.23
2023-03-13T01:19:29.845Z,100010.02
2023-03-13T01:22:03.076Z,100027.50
2023-03-13T01:24:36.537Z,100027.50
2023-03-13T01:27:09.284Z,100031.36
2023-03-13T01:29:42.426Z,100040.35
2023-03-13T01:32:15.252Z,100047.09
2023-03-13T01:34:48.724Z,100044.09
2023-03-13T01:37:23.015Z,100045.23
2023-03-13T01:39:56.209Z,100047.00
2023-03-13T01:42:29.135Z,100051.99
2023-03-13T01:45:04.203Z,100054.42
2023-03-13T01:47:38.007Z,100060.84
2023-03-13T01:50:15.891Z,100066.58
2023-03-13T01:52:57.276Z,100072.91
2023-03-13T01:55:32.291Z,100081.00
2023-03-13T01:58:05.705Z,100093.09
2023-03-13T02:00:39.471Z,100091.37
2023-03-13T02:03:18.207Z,100097.64
2023-03-13T02:05:52.936Z,100108.27
2023-03-13T02:08:41.396Z,100113.66
2023-03-13T02:11:28.725Z,100113.75
2023-03-13T02:14:01.687Z,100120.17
2023-03-13T02:16:37.120Z,100127.34
2023-03-13T02:19:19.780Z,100131.19
2023-03-13T02:21:59.220Z,100135.82
2023-03-13T02:24:49.656Z,100145.31
2023-03-13T02:27:22.603Z,100143.14
2023-03-13T02:29:56.450Z,100144.81
2023-03-13T02:32:31.275Z,100151.59
2023-03-13T02:35:10.456Z,100160.22
2023-03-13T02:37:46.352Z,100155.44
2023-03-13T02:40:27.702Z,100162.25
2023-03-13T02:43:04.517Z,100166.48
2023-03-13T02:45:37.512Z,100166.70
2023-03-13T02:48:11.023Z,100174.79
2023-03-13T02:50:44.581Z,100183.72
2023-03-13T02:53:17.432Z,100178.88
2023-03-13T02:55:50.593Z,100186.04
2023-03-13T02:58:26.133Z,100193.39
2023-03-13T03:01:02.316Z,100195.66
2023-03-13T03:03:38.588Z,100201.17
2023-03-13T03:06:11.964Z,100207.86
2023-03-13T03:08:46.101Z,100206.37
2023-03-13T03:11:19.757Z,100216.17
2023-03-13T03:13:54.323Z,100219.43
2023-03-13T03:16:27.706Z,100229.11
2023-03-13T03:19:00.530Z,100231.29
2023-03-13T03:21:34.189Z,100234.45
2023-03-13T03:24:07.315Z,100236.71
2023-03-13T03:26:42.454Z,100234.00
2023-03-13T03:29:17.766Z,100237.84
2023-03-13T03:31:53.265Z,100237.39
2023-03-13T03:34:26.785Z,100239.54
2023-03-13T03:37:00.529Z,100244.37
2023-03-13T03:39:33.756Z,100256.20
2023-03-13T03:42:06.923Z,100259.00
2023-03-13T03:44:43.018Z,100265.86
2023-03-13T03:47:17.192Z,100274.45
2023-03-13T03:49:51.711Z,100277.41
2023-03-13T03:52:25.292Z,100279.43
2023-03-13T03:54:58.329Z,100283.83
2023-03-13T03:57:31.595Z,100287.67
2023-03-13T04:00:07.277Z,100290.94
2023-03-13T04:02:43.389Z,100295.84
2023-03-13T04:05:15.666Z,100296.89
2023-03-13T04:07:49.109Z,100305.72
2023-03-13T04:10:22.029Z,100320.45
2023-03-13T04:12:55.042Z,100323.22
2023-03-13T04:15:29.004Z,100330.57
2023-03-13T04:18:02.581Z,100329.59
2023-03-13T04:20:35.779Z,100338.89
2023-03-13T04:23:08.757Z,100344.18
2023-03-13T04:25:41.935Z,100346.13
2023-03-13T04:28:16.191Z,100353.24
2023-03-13T04:30:49.637Z,100356.20
2023-03-13T04:33:28.180Z,100359.08
2023-03-13T04:36:10.119Z,100368.88
2023-03-13T04:39:01.331Z,100368.80
2023-03-13T04:41:42.679Z,100365.66
2023-03-13T04:44:20.079Z,100369.97
2023-03-13T04:47:01.349Z,100367.31
2023-03-13T04:49:44.766Z,100365.37
2023-03-13T04:52:31.614Z,100373.69
2023-03-13T04:55:23.141Z,100373.41
2023-03-13T04:58:03.737Z,100388.15
2023-03-13T05:00:44.341Z,100385.65
2023-03-13T05:03:27.918Z,100393.52
2023-03-13T05:06:02.990Z,100396.89
2023-03-13T05:08:53.959Z,100404.71
2023-03-13T05:11:31.792Z,100400.60
2023-03-13T05:14:23.699Z,100414.06
2023-03-13T05:17:14.542Z,100413.47
2023-03-13T05:19:58.089Z,100423.08
2023-03-13T05:22:42.503Z,100427.30
2023-03-13T05:25:23.144Z,100429.42
2023-03-13T05:28:01.711Z,100435.17
2023-03-13T05:30:52.543Z,100434.94
2023-03-13T05:33:43.915Z,100442.06
2023-03-13T05:36:27.232Z,100444.89
2023-03-13T05:39:07.706Z,100441.79
2023-03-13T05:41:58.497Z,100440.45
2023-03-13T05:44:36.285Z,100448.52
2023-03-13T05:47:08.950Z,100449.42
2023-03-13T05:49:49.498Z,100463.63
2023-03-13T05:52:37.694Z,100467.20
2023-03-13T05:55:28.644Z,100460.45
2023-03-13T05:58:15.631Z,100475.41
2023-03-13T06:00:50.196Z,100480.77
2023-03-13T06:03:34.263Z,100490.08
2023-03-13T06:06:07.538Z,100497.46
2023-03-13T06:08:42.808Z,100490.33
2023-03-13T06:11:16.350Z,100488.44
2023-03-13T06:13:49.248Z,100493.13
2023-03-13T06:16:26.758Z,100490.07
2023-03-13T06:19:02.543Z,100501.20
2023-03-13T06:21:35.344Z,100501.11
2023-03-13T06:24:08.599Z,100498.67
2023-03-13T06:26:41.300Z,100511.10
2023-03-13T06:29:14.277Z,100505.87
2023-03-13T06:31:47.665Z,100509.52
2023-03-13T06:34:21.429Z,100508.67
2023-03-13T06:36:54.359Z,100508.67
2023-03-13T06:39:27.156Z,100517.05
2023-03-13T06:42:00.331Z,100510.66
2023-03-13T06:44:33.732Z,100519.51
2023-03-13T06:47:07.847Z,100525.85
2023-03-13T06:49:40.917Z,100528.72
2023-03-13T06:52:13.758Z,100531.30
2023-03-13T06:54:47.709Z,100521.28
2023-03-13T06:57:20.763Z,100533.81
2023-03-13T06:59:53.500Z,100536.09
2023-03-13T07:02:26.531Z,100548.98
2023-03-13T07:05:00.235Z,100550.17
2023-03-13T07:07:34.215Z,100540.05
2023-03-13T07:10:08.279Z,100546.07
2023-03-13T07:12:42.000Z,100536.48
2023-03-13T07:15:14.824Z,100543.51
2023-03-13T07:17:47.627Z,100544.16
2023-03-13T07:20:20.973Z,100546.02
2023-03-13T07:22:54.525Z,100554.83
2023-03-13T07:25:27.579Z,100558.45
2023-03-13T07:28:01.528Z,100561.17
2023-03-13T07:30:34.963Z,100567.47
2023-03-13T07:33:07.891Z,100554.86
2023-03-13T07:35:41.428Z,100563.53
2023-03-13T07:38:14.379Z,100564.50
2023-03-13T07:40:57.950Z,100574.57
2023-03-13T07:43:31.786Z,100566.69
2023-03-13T07:46:07.086Z,100574.10
2023-03-13T07:48:43.460Z,100570.80
2023-03-13T07:51:25.184Z,100573.45
2023-03-13T07:53:55.394Z,100579.17
2023-03-13T07:56:28.533Z,100578.28
2023-03-13T07:59:01.560Z,100589.67
2023-03-13T08:01:34.727Z,100582.35
2023-03-13T08:04:15.413Z,100582.63
2023-03-13T08:06:48.979Z,100590.30
2023-03-13T08:09:22.530Z,100605.42
2023-03-13T08:11:55.234Z,100587.38
2023-03-13T08:14:28.278Z,100582.07
2023-03-13T08:17:01.750Z,100584.57
2023-03-13T08:19:35.679Z,100590.80
2023-03-13T08:22:08.770Z,100600.65
2023-03-13T08:24:41.501Z,100602.08
2023-03-13T08:27:14.857Z,100590.95
2023-03-13T08:29:48.498Z,100601.20
2023-03-13T08:32:22.367Z,100597.09
2023-03-13T08:34:55.399Z,100598.66
2023-03-13T08:37:28.223Z,100601.94
2023-03-13T08:40:01.885Z,100596.79
2023-03-13T08:42:35.009Z,100605.75
2023-03-13T08:45:09.872Z,100607.59
2023-03-13T08:47:44.394Z,100602.80
2023-03-13T08:50:17.876Z,100609.17
2023-03-13T08:52:50.785Z,100607.09
2023-03-13T08:55:25.577Z,100615.16
2023-03-13T08:57:58.284Z,100612.06
2023-03-13T09:00:31.522Z,100605.23
2023-03-13T09:03:05.010Z,100619.73
2023-03-13T09:05:54.912Z,100623.61
2023-03-13T09:08:15.981Z,100620.23
2023-03-13T09:10:48.741Z,100626.47
2023-03-13T09:13:22.245Z,100628.03
2023-03-13T09:16:04.471Z,100639.28
2023-03-13T09:18:39.329Z,100626.00
2023-03-13T09:21:17.573Z,100640.22
2023-03-13T09:23:52.471Z,100639.05
2023-03-13T09:26:25.964Z,100633.09
2023-03-13T09:28:59.511Z,100635.81
2023-03-13T09:31:34.456Z,100633.50
2023-03-13T09:34:08.002Z,100632.73
2023-03-13T09:36:41.482Z,100641.66
2023-03-13T09:39:14.251Z,100634.84
2023-03-13T09:42:06.242Z,100638.33
2023-03-13T09:44:43.553Z,100636.41
2023-03-13T09:47:43.994Z,100637.70
2023-03-13T09:50:26.607Z,100640.02
2023-03-13T09:53:05.673Z,100631.72
2023-03-13T09:55:39.596Z,100627.98
2023-03-13T09:58:22.545Z,100616.23
2023-03-13T10:00:58.831Z,100631.62
2023-03-13T10:03:45.453Z,100625.06
2023-03-13T10:06:23.387Z,100630.10
2023-03-13T10:08:58.896Z,100623.40
2023-03-13T10:11:48.397Z,100623.00
2023-03-13T10:14:41.797Z,100623.13
2023-03-13T10:17:38.841Z,100620.67
2023-03-13T10:20:25.726Z,100628.18
2023-03-13T10:23:06.212Z,100620.02
2023-03-13T10:25:41.123Z,100616.77
2023-03-13T10:28:19.670Z,100624.56
2023-03-13T10:31:07.779Z,100607.73
2023-03-13T10:33:41.215Z,100615.23
2023-03-13T10:36:15.786Z,100612.40
2023-03-13T10:38:52.982Z,100615.38
2023-03-13T10:41:36.835Z,100613.81
2023-03-13T10:44:22.686Z,100611.99
2023-03-13T10:47:00.872Z,100620.02
2023-03-13T10:49:34.675Z,100613.30
2023-03-13T10:52:09.649Z,100625.70
2023-03-13T10:54:42.551Z,100618.73
2023-03-13T10:57:29.860Z,100606.16
2023-03-13T11:00:09.511Z,100606.94
2023-03-13T11:02:42.664Z,100607.73
2023-03-13T11:05:35.445Z,100604.23
2023-03-13T11:08:28.388Z,100608.47
2023-03-13T11:11:04.748Z,100611.06
2023-03-13T11:13:43.154Z,100633.85
2023-03-13T11:16:27.508Z,100621.04
2023-03-13T11:19:20.156Z,100615.34
2023-03-13T11:22:18.428Z,100615.86
2023-03-13T11:25:29.914Z,100609.89
2023-03-13T11:28:31.247Z,100620.64
2023-03-13T11:31:33.287Z,100618.56
2023-03-13T11:34:09.790Z,100609.62
2023-03-13T11:37:07.284Z,100622.69
2023-03-13T11:39:50.912Z,100611.03
2023-03-13T11:42:52.318Z,100623.45
2023-03-13T11:46:00.535Z,100616.59
2023-03-13T11:49:02.444Z,100613.73
2023-03-13T11:51:58.300Z,100615.53
2023-03-13T11:55:09.449Z,100620.57
2023-03-13T11:58:01.928Z,100615.77
2023-03-13T12:01:05.022Z,100626.38
2023-03-13T12:04:19.747Z,100616.54
2023-03-13T12:06:58.034Z,100620.42
2023-03-13T12:09:49.946Z,100617.59
2023-03-13T12:12:48.131Z,100612.29
2023-03-13T12:15:37.490Z,100626.43
2023-03-13T12:18:41.185Z,100621.48
2023-03-13T12:21:39.650Z,100629.79
2023-03-13T12:24:31.479Z,100630.05
2023-03-13T12:27:15.286Z,100626.52
2023-03-13T12:30:21.172Z,100630.69
2023-03-13T12:33:24.320Z,100631.47
2023-03-13T12:36:23.853Z,100630.79
2023-03-13T12:39:20.667Z,100644.80
2023-03-13T12:42:05.410Z,100642.09
2023-03-13T12:44:38.252Z,100643.75
2023-03-13T12:47:35.483Z,100646.87
2023-03-13T12:50:30.677Z,100647.64
2023-03-13T12:53:43.580Z,100652.20
2023-03-13T12:56:49.781Z,100652.45
2023-03-13T12:59:39.909Z,100645.88
2023-03-13T13:02:25.252Z,100640.91
2023-03-13T13:05:01.249Z,100639.98
2023-03-13T13:07:42.305Z,100641.05
2023-03-13T13:10:20.015Z,100651.02
2023-03-13T13:13:17.924Z,100649.59
2023-03-13T13:16:02.683Z,100642.83
2023-03-13T13:18:36.701Z,100637.65
2023-03-13T13:21:23.665Z,100647.25
2023-03-13T13:23:58.250Z,100648.82
2023-03-13T13:26:43.384Z,100651.14
2023-03-13T13:29:20.965Z,100644.94
2023-03-13T13:31:59.253Z,100655.67
2023-03-13T13:34:40.546Z,100648.70
2023-03-13T13:37:24.058Z,100654.01
2023-03-13T13:39:59.232Z,100652.71
2023-03-13T13:42:50.139Z,100660.36
2023-03-13T13:45:30.047Z,100662.30
2023-03-13T13:48:35.835Z,100656.46
2023-03-13T13:51:19.918Z,100652.35
2023-03-13T13:54:02.388Z,100660.22
2023-03-13T13:56:43.567Z,100655.97
2023-03-13T13:59:34.411Z,100654.27
2023-03-13T14:02:16.688Z,100657.75
2023-03-13T14:04:59.324Z,100661.92
2023-03-13T14:07:42.926Z,100664.11
2023-03-13T14:10:37.320Z,100658.03
2023-03-13T14:13:20.817Z,100661.42
2023-03-13T14:15:57.544Z,100662.59
2023-03-13T14:18:33.419Z,100660.52
2023-03-13T14:21:09.226Z,100659.49
2023-03-13T14:23:46.418Z,100660.90
2023-03-13T14:26:28.076Z,100656.88
2023-03-13T14:29:05.990Z,100657.28
2023-03-13T14:31:40.887Z,100660.77
2023-03-13T14:34:15.115Z,100655.22
2023-03-13T14:36:57.073Z,100656.64
2023-03-13T14:39:45.497Z,100658.30
2023-03-13T14:42:19.802Z,100658.17
2023-03-13T14:44:54.630Z,100660.52
2023-03-13T14:47:33.821Z,100657.80
2023-03-13T14:50:13.192Z,100661.45
2023-03-13T14:52:53.470Z,100658.08
2023-03-13T14:55:30.482Z,100658.59
2023-03-13T14:58:14.416Z,100665.34
2023-03-13T15:00:49.882Z,100666.78
2023-03-13T15:03:29.866Z,100669.47
2023-03-13T15:06:16.316Z,100670.02
2023-03-13T15:08:53.617Z,100668.45
2023-03-13T15:11:33.668Z,100681.41
2023-03-13T15:14:09.710Z,100675.17
2023-03-13T15:16:42.553Z,100681.78
2023-03-13T15:19:16.879Z,100680.23
2023-03-13T15:21:53.037Z,100681.27
2023-03-13T15:24:26.308Z,100687.34
2023-03-13T15:26:59.047Z,100688.50
2023-03-13T15:29:31.806Z,100694.19
2023-03-13T15:32:05.257Z,100699.76
2023-03-13T15:34:38.023Z,100701.95
2023-03-13T15:37:15.904Z,100705.42
2023-03-13T15:39:49.290Z,100702.97
2023-03-13T15:42:23.473Z,100702.03
2023-03-13T15:44:57.355Z,100709.03
2023-03-13T15:47:30.003Z,100705.11
2023-03-13T15:50:02.767Z,100703.41
2023-03-13T15:52:36.969Z,100707.42
2023-03-13T15:55:13.632Z,100712.32
2023-03-13T15:57:50.441Z,100713.60
2023-03-13T16:00:27.483Z,100713.95
2023-03-13T16:03:00.125Z,100719.88
2023-03-13T16:05:33.474Z,100714.69
2023-03-13T16:08:06.510Z,100726.45
2023-03-13T16:10:39.536Z,100729.16
2023-03-13T16:13:12.681Z,100724.86
2023-03-13T16:15:46.712Z,100729.36
2023-03-13T16:18:23.674Z,100726.75
2023-03-13T16:20:56.906Z,100728.66
2023-03-13T16:23:30.629Z,100736.28
2023-03-13T16:26:04.382Z,100736.39
2023-03-13T16:28:37.982Z,100740.75
2023-03-13T16:31:23.999Z,100737.39
2023-03-13T16:33:58.294Z,100743.03
2023-03-13T16:36:33.837Z,100740.56
2023-03-13T16:39:14.402Z,100754.64
2023-03-13T16:41:48.072Z,100753.45
2023-03-13T16:44:22.329Z,100754.61
2023-03-13T16:47:05.117Z,100753.39
2023-03-13T16:49:29.865Z,100754.80
2023-03-13T16:52:02.714Z,100756.56
2023-03-13T16:54:35.785Z,100757.97
2023-03-13T16:57:14.900Z,100762.34
2023-03-13T16:59:48.387Z,100768.38
2023-03-13T17:02:22.776Z,100767.27
2023-03-13T17:04:56.003Z,100771.56
2023-03-13T17:07:30.431Z,100769.95
2023-03-13T17:10:03.437Z,100767.33
2023-03-13T17:12:37.385Z,100766.11
2023-03-13T17:15:11.605Z,100773.73
2023-03-13T17:17:47.933Z,100773.95
2023-03-13T17:20:27.283Z,100776.24
2023-03-13T17:23:01.444Z,100780.11
2023-03-13T17:25:36.045Z,100782.34
2023-03-13T17:28:14.896Z,100784.67
2023-03-13T17:30:48.666Z,100784.67
2023-03-13T17:33:21.495Z,100792.95
2023-03-13T17:35:55.874Z,100799.27
2023-03-13T17:38:28.926Z,100800.63
2023-03-13T17:41:02.104Z,100802.86
2023-03-13T17:43:36.606Z,100802.98
2023-03-13T17:46:22.521Z,100805.06
2023-03-13T17:48:56.052Z,100806.39
2023-03-13T17:51:32.261Z,100804.66
2023-03-13T17:54:07.298Z,100808.44
2023-03-13T17:56:42.259Z,100805.05
2023-03-13T17:59:19.363Z,100808.86
2023-03-13T18:01:52.251Z,100806.13
2023-03-13T18:04:25.067Z,100809.55
2023-03-13T18:06:58.940Z,100818.03
2023-03-13T18:09:32.054Z,100823.03
2023-03-13T18:12:05.670Z,100827.77
2023-03-13T18:14:39.919Z,100818.97
2023-03-13T18:17:22.440Z,100826.92
2023-03-13T18:19:55.732Z,100833.14
2023-03-13T18:22:28.918Z,100831.91
2023-03-13T18:25:01.982Z,100832.30
2023-03-13T18:27:34.829Z,100834.17
2023-03-13T18:30:18.359Z,100840.55
2023-03-13T18:32:51.471Z,100845.39
2023-03-13T18:35:24.266Z,100845.47
2023-03-13T18:37:57.447Z,100853.78
2023-03-13T18:40:32.028Z,100857.34
2023-03-13T18:43:05.357Z,100859.45
2023-03-13T18:45:39.492Z,100859.02
2023-03-13T18:48:13.535Z,100857.61
2023-03-13T18:50:46.362Z,100858.42
2023-03-13T18:53:19.038Z,100863.27
2023-03-13T18:55:53.886Z,100854.55
2023-03-13T18:58:27.057Z,100856.81
2023-03-13T19:01:01.620Z,100862.35
2023-03-13T19:03:34.801Z,100868.63
2023-03-13T19:06:35.351Z,100875.07
2023-03-13T19:09:42.362Z,100878.93
2023-03-13T19:11:54.792Z,100887.40
2023-03-13T19:14:29.101Z,100889.42
2023-03-13T19:17:01.990Z,100893.09
2023-03-13T19:19:35.376Z,100894.15
2023-03-13T19:22:10.906Z,100896.73
2023-03-13T19:24:43.856Z,100895.66
2023-03-13T19:27:17.756Z,100903.42
2023-03-13T19:29:50.711Z,100900.53
2023-03-13T19:32:23.421Z,100899.31
2023-03-13T19:34:56.687Z,100901.19
2023-03-13T19:37:29.556Z,100903.25
2023-03-13T19:40:02.913Z,100897.00
2023-03-13T19:42:36.050Z,100900.94
2023-03-13T19:45:10.172Z,100894.80
2023-03-13T19:47:43.480Z,100899.81
2023-03-13T19:50:27.914Z,100896.76
2023-03-13T19:53:01.073Z,100896.47
2023-03-13T19:55:34.084Z,100904.93
2023-03-13T19:58:07.438Z,100906.22
2023-03-13T20:00:40.210Z,100904.38
2023-03-13T20:03:14.071Z,100902.94
2023-03-13T20:05:47.288Z,100905.51
2023-03-13T20:08:20.130Z,100904.03
2023-03-13T20:10:53.103Z,100904.31
2023-03-13T20:13:26.649Z,100904.31
2023-03-13T20:16:01.022Z,100902.29
2023-03-13T20:18:34.668Z,100901.55
2023-03-13T20:21:08.299Z,100900.27
2023-03-13T20:23:41.672Z,100900.20
2023-03-13T20:26:16.901Z,100899.81
2023-03-13T20:28:52.739Z,100896.34
2023-03-13T20:31:29.476Z,100898.52
2023-03-13T20:34:03.084Z,100900.36
2023-03-13T20:36:36.281Z,100899.81
2023-03-13T20:39:09.003Z,100896.92
2023-03-13T20:41:42.401Z,100889.27
2023-03-13T20:44:15.180Z,100889.27
2023-03-13T20:46:48.590Z,100888.69
2023-03-13T20:49:21.606Z,100889.42
2023-03-13T20:51:55.011Z,100888.36
2023-03-13T20:54:28.166Z,100882.16
2023-03-13T20:57:02.846Z,100888.69
2023-03-13T20:59:36.108Z,100895.05
2023-03-13T21:02:10.233Z,100896.46
2023-03-13T21:04:43.630Z,100890.50
2023-03-13T21:07:16.840Z,100890.30
2023-03-13T21:09:49.718Z,100892.79
2023-03-13T21:12:22.586Z,100892.19
2023-03-13T21:14:55.517Z,100897.95
2023-03-13T21:17:28.915Z,100904.79
2023-03-13T21:20:02.310Z,100902.05
2023-03-13T21:22:35.630Z,100903.17
2023-03-13T21:25:12.151Z,100904.84
2023-03-13T21:27:45.622Z,100901.89
2023-03-13T21:30:21.640Z,100903.78
2023-03-13T21:32:54.770Z,100903.62
2023-03-13T21:35:28.152Z,100899.83
2023-03-13T21:38:00.962Z,100903.73
2023-03-13T21:40:34.097Z,100894.80
2023-03-13T21:43:06.929Z,100899.38
2023-03-13T21:45:40.008Z,100905.80
2023-03-13T21:48:12.772Z,100896.48
2023-03-13T21:50:47.287Z,100897.59
2023-03-13T21:53:20.836Z,100898.16
2023-03-13T21:55:54.075Z,100901.50
2023-03-13T21:58:27.286Z,100898.93
2023-03-13T22:01:00.702Z,100901.50
2023-03-13T22:03:34.211Z,100897.43
2023-03-13T22:06:16.548Z,100891.22
2023-03-13T22:08:51.064Z,100891.22
2023-03-13T22:11:25.001Z,100894.31
2023-03-13T22:13:57.722Z,100900.22
2023-03-13T22:16:30.626Z,100903.35
2023-03-13T22:19:05.027Z,100897.70
2023-03-13T22:21:37.815Z,100896.93
2023-03-13T22:24:10.889Z,100906.30
2023-03-13T22:26:44.172Z,100908.70
2023-03-13T22:29:17.285Z,100909.09
2023-03-13T22:31:50.556Z,100908.16
2023-03-13T22:34:23.816Z,100906.19
2023-03-13T22:36:57.205Z,100916.30
2023-03-13T22:39:30.365Z,100911.94
2023-03-13T22:42:03.055Z,100914.17
2023-03-13T22:44:37.461Z,100916.40
2023-03-13T22:47:10.783Z,100929.12
2023-03-13T22:49:44.502Z,100918.86
2023-03-13T22:52:17.687Z,100927.33
2023-03-13T22:54:50.425Z,100930.33
2023-03-13T22:57:23.170Z,100923.56
2023-03-13T22:59:59.277Z,100925.20
2023-03-13T23:02:32.097Z,100925.58
2023-03-13T23:05:05.560Z,100923.44
2023-03-13T23:07:40.622Z,100919.98
2023-03-13T23:10:15.166Z,100915.79
2023-03-13T23:12:48.053Z,100920.58
2023-03-13T23:15:22.602Z,100921.13
2023-03-13T23:17:56.637Z,100917.63
2023-03-13T23:20:30.018Z,100916.13
2023-03-13T23:23:02.892Z,100919.59
2023-03-13T23:25:35.795Z,100914.11
2023-03-13T23:28:09.548Z,100916.85
2023-03-13T23:30:43.786Z,100917.58
2023-03-13T23:33:18.053Z,100919.94
2023-03-13T23:35:51.187Z,100925.80
2023-03-13T23:38:25.672Z,100917.33
2023-03-13T23:40:58.661Z,100914.41
2023-03-13T23:43:33.108Z,100916.81
2023-03-13T23:46:07.082Z,100926.01
2023-03-13T23:48:40.088Z,100915.75
2023-03-13T23:51:13.002Z,100914.13
2023-03-13T23:53:46.450Z,100913.60
2023-03-13T23:56:19.820Z,100905.18
2023-03-13T23:58:54.830Z,100903.73
